Time;durP1;ratioP1;P1;durP2;ratioP2;P2;SDS_P1;SDS_P2;PMS_P1;PMS_P2;Temp;Humidity;BMP_temperature;BMP_pressure;BME280_temperature;BME280_humidity;BME280_pressure;Samples;Min_cycle;Max_cycle;Signal;HPM_P1;HPM_P2
2020/12/27 00:00:18;;;;;;;11.00;8.00;;;24.40;82.20;;;;;;4975055;28;20339;-69
2020/12/27 00:02:45;;;;;;;15.23;9.90;;;24.60;81.40;;;;;;4974997;28;20272;-71
2020/12/27 00:05:13;;;;;;;11.60;8.30;;;24.50;80.70;;;;;;4965837;28;20688;-71
2020/12/27 00:07:40;;;;;;;10.13;8.90;;;24.80;80.20;;;;;;4966524;28;20206;-70
2020/12/27 00:10:08;;;;;;;10.90;8.30;;;24.90;80.90;;;;;;4971812;28;20217;-70
2020/12/27 00:12:35;;;;;;;10.77;7.37;;;24.90;79.40;;;;;;4966388;28;20195;-70
2020/12/27 00:15:03;;;;;;;9.23;6.77;;;25.10;79.00;;;;;;4955545;29;20184;-70
2020/12/27 00:17:30;;;;;;;7.77;6.50;;;25.30;77.40;;;;;;4967685;28;20242;-70
2020/12/27 00:19:58;;;;;;;10.97;6.97;;;25.30;76.60;;;;;;4955813;29;20203;-72
2020/12/27 00:22:26;;;;;;;7.97;6.80;;;25.50;76.80;;;;;;4960383;28;20226;-72
2020/12/27 00:24:53;;;;;;;8.50;6.67;;;25.70;76.80;;;;;;4966609;28;20236;-69
2020/12/27 00:27:20;;;;;;;7.40;5.60;;;25.70;75.90;;;;;;4960718;28;20179;-70
2020/12/27 00:29:48;;;;;;;8.37;6.23;;;25.70;74.20;;;;;;4972412;28;20554;-71
2020/12/27 00:32:15;;;;;;;9.27;5.50;;;25.80;73.90;;;;;;4973817;28;20174;-70
2020/12/27 00:34:42;;;;;;;6.50;5.43;;;26.00;72.50;;;;;;4974601;28;20179;-71
2020/12/27 00:37:10;;;;;;;7.13;5.40;;;26.30;72.10;;;;;;4974174;28;20223;-70
2020/12/27 00:39:37;;;;;;;8.13;5.93;;;26.50;72.80;;;;;;4971635;28;20215;-71
2020/12/27 00:42:04;;;;;;;8.40;4.80;;;26.80;70.70;;;;;;4974261;28;20189;-72
2020/12/27 00:44:32;;;;;;;8.73;4.73;;;26.90;70.40;;;;;;4974523;28;20706;-71
2020/12/27 00:46:59;;;;;;;4.87;4.37;;;27.20;69.10;;;;;;4974408;28;20182;-71
2020/12/27 00:49:27;;;;;;;8.77;5.27;;;27.40;67.80;;;;;;4974586;28;20263;-71
2020/12/27 00:51:54;;;;;;;4.60;3.73;;;27.50;67.50;;;;;;4974336;28;20594;-71
2020/12/27 00:54:21;;;;;;;4.57;3.30;;;27.60;66.90;;;;;;4972678;28;20308;-73
2020/12/27 00:56:52;;;;;;;5.33;4.27;;;27.50;66.20;;;;;;4974883;28;20182;-71
2020/12/27 00:59:20;;;;;;;5.30;4.23;;;27.50;66.50;;;;;;4975123;28;20183;-70
2020/12/27 01:01:48;;;;;;;6.07;4.97;;;27.80;66.30;;;;;;4974881;28;20211;-72
2020/12/27 01:04:15;;;;;;;6.50;4.33;;;27.80;66.20;;;;;;4975135;28;20175;-70
2020/12/27 01:06:42;;;;;;;6.10;3.77;;;27.80;66.90;;;;;;4974950;28;20267;-72
2020/12/27 01:09:10;;;;;;;4.83;4.30;;;28.10;65.40;;;;;;4974738;28;20261;-71
2020/12/27 01:11:37;;;;;;;6.27;4.50;;;28.60;64.10;;;;;;4974784;28;20182;-73
2020/12/27 01:14:04;;;;;;;6.83;4.07;;;28.50;63.20;;;;;;4974639;28;20194;-72
2020/12/27 01:16:32;;;;;;;5.80;4.07;;;28.50;64.40;;;;;;4974587;28;20193;-71
2020/12/27 01:18:59;;;;;;;5.20;4.13;;;28.20;64.20;;;;;;4974486;28;20182;-71
2020/12/27 01:21:28;;;;;;;5.83;4.30;;;28.30;64.00;;;;;;4974817;28;20225;-72
2020/12/27 01:23:59;;;;;;;5.13;3.40;;;28.10;64.60;;;;;;4973982;28;20558;-72
2020/12/27 01:26:31;;;;;;;4.53;3.43;;;28.20;64.50;;;;;;4973416;28;20189;-70
2020/12/27 01:28:59;;;;;;;5.73;3.83;;;28.20;64.60;;;;;;4973947;28;20185;-72
2020/12/27 01:31:27;;;;;;;7.07;4.23;;;28.50;64.50;;;;;;4974214;28;20179;-73
2020/12/27 01:33:54;;;;;;;6.50;3.83;;;28.90;63.80;;;;;;4974114;28;20210;-72
2020/12/27 01:36:33;;;;;;;6.67;3.53;;;29.20;62.50;;;;;;4974508;28;20178;-71
2020/12/27 01:39:03;;;;;;;4.97;3.40;;;29.30;62.20;;;;;;4974517;28;20273;-71
2020/12/27 01:41:31;;;;;;;5.43;3.43;;;29.50;61.20;;;;;;4974248;28;20225;-71
2020/12/27 01:44:09;;;;;;;5.07;3.80;;;29.40;63.10;;;;;;4974523;28;20181;-71
2020/12/27 01:46:40;;;;;;;7.60;3.97;;;29.40;63.00;;;;;;4974038;28;20308;-71
2020/12/27 01:49:09;;;;;;;6.60;3.60;;;29.30;61.90;;;;;;4974398;28;20586;-70
2020/12/27 01:51:37;;;;;;;5.73;3.67;;;29.60;62.40;;;;;;4974106;28;20532;-70
2020/12/27 01:54:06;;;;;;;7.77;3.37;;;29.50;63.00;;;;;;4972133;28;20234;-70
2020/12/27 01:56:42;;;;;;;5.53;3.70;;;29.80;61.40;;;;;;4973976;28;20187;-71
2020/12/27 01:59:18;;;;;;;4.03;3.03;;;29.90;61.00;;;;;;4972575;28;20218;-71
2020/12/27 02:01:46;;;;;;;6.37;3.43;;;29.80;62.80;;;;;;4973681;28;20214;-69
2020/12/27 02:04:13;;;;;;;4.70;3.53;;;29.80;61.90;;;;;;4973825;28;20221;-70
2020/12/27 02:06:42;;;;;;;5.63;3.30;;;29.80;62.70;;;;;;4970527;28;20201;-71
2020/12/27 02:09:12;;;;;;;8.00;3.57;;;29.80;62.30;;;;;;4956849;28;20615;-71
2020/12/27 02:11:40;;;;;;;6.60;3.33;;;29.90;62.80;;;;;;4954706;28;20543;-71
2020/12/27 02:14:07;;;;;;;7.53;3.10;;;30.10;62.70;;;;;;4958519;28;20175;-72
2020/12/27 02:16:35;;;;;;;4.90;2.90;;;30.30;62.70;;;;;;4974582;28;20210;-70
2020/12/27 02:19:12;;;;;;;8.83;3.20;;;30.50;61.60;;;;;;4974891;28;20191;-70
2020/12/27 02:21:40;;;;;;;7.80;3.47;;;30.30;62.80;;;;;;4974271;28;20265;-70
2020/12/27 02:24:07;;;;;;;8.77;3.90;;;30.20;63.10;;;;;;4973099;28;20175;-71
2020/12/27 02:26:35;;;;;;;9.37;3.60;;;30.10;63.80;;;;;;4973709;28;20217;-69
2020/12/27 02:29:02;;;;;;;10.27;3.50;;;29.90;64.80;;;;;;4973465;28;20178;-72
2020/12/27 02:31:30;;;;;;;9.10;3.50;;;29.90;64.60;;;;;;4972054;28;20265;-73
2020/12/27 02:33:57;;;;;;;6.53;2.97;;;29.80;65.60;;;;;;4973320;28;20533;-72
2020/12/27 02:36:25;;;;;;;9.33;3.20;;;30.30;64.00;;;;;;4971628;28;20170;-73
2020/12/27 02:38:52;;;;;;;7.13;3.27;;;30.20;64.00;;;;;;4968663;28;20226;-72
2020/12/27 02:41:23;;;;;;;9.47;3.50;;;30.00;64.60;;;;;;4974294;28;20214;-73
2020/12/27 02:43:50;;;;;;;7.67;3.27;;;30.00;64.80;;;;;;4975736;28;20181;-72
2020/12/27 02:46:26;;;;;;;10.40;4.13;;;29.80;65.50;;;;;;4976453;28;20692;-69
2020/12/27 02:48:55;;;;;;;9.57;3.50;;;30.10;65.20;;;;;;4976555;28;20725;-69
2020/12/27 02:51:24;;;;;;;7.17;3.27;;;30.40;65.10;;;;;;4967520;28;20203;-70
2020/12/27 02:53:52;;;;;;;7.73;3.30;;;30.40;64.40;;;;;;4972419;28;20226;-71
2020/12/27 02:56:21;;;;;;;4.77;2.80;;;30.60;63.60;;;;;;4975133;28;20170;-72
2020/12/27 02:58:49;;;;;;;5.20;3.13;;;31.00;63.20;;;;;;4976547;28;20656;-71
2020/12/27 03:01:17;;;;;;;5.50;3.07;;;31.00;62.80;;;;;;4974805;28;20203;-70
2020/12/27 03:03:45;;;;;;;6.07;2.90;;;31.30;62.40;;;;;;4976357;28;20659;-69
2020/12/27 03:06:12;;;;;;;8.43;2.70;;;31.40;61.20;;;;;;4976507;28;20175;-70
2020/12/27 03:08:41;;;;;;;6.07;2.72;;;31.30;61.90;;;;;;4976194;28;20648;-70
2020/12/27 03:11:09;;;;;;;6.27;2.60;;;31.20;61.40;;;;;;4976512;28;20659;-70
2020/12/27 03:13:36;;;;;;;8.45;3.15;;;31.10;62.60;;;;;;4976469;28;20175;-71
2020/12/27 03:16:05;;;;;;;9.43;2.72;;;30.70;63.10;;;;;;4975814;28;20182;-71
2020/12/27 03:18:33;;;;;;;9.63;2.70;;;30.60;64.10;;;;;;4976321;28;20249;-71
2020/12/27 03:21:00;;;;;;;6.43;2.50;;;30.80;64.40;;;;;;4976360;28;20229;-72
2020/12/27 03:23:28;;;;;;;4.93;2.40;;;31.20;63.30;;;;;;4974635;28;20265;-70
2020/12/27 03:25:55;;;;;;;5.10;2.30;;;31.60;61.50;;;;;;4975562;28;20277;-69
2020/12/27 03:28:22;;;;;;;4.07;2.40;;;31.10;62.80;;;;;;4974120;28;20257;-72
2020/12/27 03:30:50;;;;;;;7.07;2.58;;;31.40;61.50;;;;;;4975873;28;20187;-71
2020/12/27 03:33:17;;;;;;;5.03;2.47;;;31.00;61.70;;;;;;4975969;28;20179;-71
2020/12/27 03:35:45;;;;;;;5.00;2.55;;;31.10;62.40;;;;;;4975946;28;20790;-69
2020/12/27 03:38:12;;;;;;;4.10;2.25;;;30.90;61.80;;;;;;4975904;28;20182;-72
2020/12/27 03:40:39;;;;;;;4.72;2.20;;;30.80;62.70;;;;;;4974180;28;20241;-71
2020/12/27 03:43:07;;;;;;;7.50;2.15;;;30.40;63.10;;;;;;4975775;28;20640;-71
2020/12/27 03:45:34;;;;;;;5.30;1.83;;;30.40;63.00;;;;;;4975880;28;20173;-71
2020/12/27 03:48:02;;;;;;;5.07;2.30;;;30.00;63.80;;;;;;4975772;28;20330;-71
2020/12/27 03:50:29;;;;;;;4.13;1.98;;;30.00;65.00;;;;;;4975206;28;20183;-72
2020/12/27 03:52:57;;;;;;;5.47;2.05;;;30.90;63.50;;;;;;4973933;28;20310;-73
2020/12/27 03:55:24;;;;;;;4.05;1.70;;;30.90;61.90;;;;;;4975547;28;20336;-72
2020/12/27 03:57:51;;;;;;;3.05;2.08;;;30.50;62.10;;;;;;4971441;28;20190;-73
2020/12/27 04:00:20;;;;;;;4.93;1.85;;;30.80;61.60;;;;;;4963468;28;20708;-71
2020/12/27 04:02:47;;;;;;;6.20;1.95;;;30.70;61.10;;;;;;4971223;28;20229;-72
2020/12/27 04:05:15;;;;;;;4.22;1.90;;;30.80;60.00;;;;;;4970801;28;20277;-72
2020/12/27 04:07:42;;;;;;;7.07;1.80;;;31.20;59.40;;;;;;4971405;28;20223;-73
2020/12/27 04:10:09;;;;;;;4.75;1.92;;;31.50;59.10;;;;;;4961091;28;20183;-72
2020/12/27 04:12:37;;;;;;;3.97;1.65;;;31.40;57.80;;;;;;4967290;28;20660;-73
2020/12/27 04:15:04;;;;;;;4.00;2.45;;;31.20;57.80;;;;;;4972078;28;20582;-72
2020/12/27 04:17:32;;;;;;;5.28;1.88;;;31.50;57.50;;;;;;4972707;28;20321;-70
2020/12/27 04:19:59;;;;;;;7.93;1.90;;;31.70;55.40;;;;;;4971333;28;20216;-71
2020/12/27 04:22:26;;;;;;;4.55;2.10;;;31.70;56.00;;;;;;4974616;28;20178;-70
2020/12/27 04:24:54;;;;;;;4.43;2.30;;;31.60;56.10;;;;;;4965613;28;20732;-71
2020/12/27 04:27:21;;;;;;;2.88;2.00;;;31.40;56.00;;;;;;4966431;28;20575;-72
2020/12/27 04:29:49;;;;;;;3.65;2.30;;;31.50;55.70;;;;;;4963422;28;20185;-71
2020/12/27 04:32:16;;;;;;;6.43;2.13;;;31.50;55.70;;;;;;4970457;28;20201;-70
2020/12/27 04:34:43;;;;;;;4.93;2.00;;;31.50;55.20;;;;;;4970852;28;20262;-72
2020/12/27 04:37:11;;;;;;;3.63;1.83;;;31.30;55.70;;;;;;4966005;28;20645;-70
2020/12/27 04:39:38;;;;;;;5.03;1.98;;;31.70;54.30;;;;;;4966445;28;20182;-72
2020/12/27 04:42:05;;;;;;;3.90;1.92;;;31.30;56.00;;;;;;4968602;28;20182;-70
2020/12/27 04:44:34;;;;;;;6.00;2.10;;;31.20;57.40;;;;;;4965030;28;20179;-71
2020/12/27 04:47:03;;;;;;;4.53;1.73;;;31.10;58.70;;;;;;4972246;28;20182;-70
2020/12/27 04:49:30;;;;;;;3.78;1.67;;;31.10;59.10;;;;;;4966563;28;20183;-70
2020/12/27 04:52:01;;;;;;;6.80;1.80;;;31.00;59.70;;;;;;4965252;28;20194;-71
2020/12/27 04:54:30;;;;;;;2.83;1.48;;;31.20;59.20;;;;;;4966736;28;20751;-72
2020/12/27 04:56:58;;;;;;;3.67;1.50;;;31.40;59.50;;;;;;4967374;28;20210;-72
2020/12/27 04:59:26;;;;;;;4.47;1.60;;;31.60;57.90;;;;;;4969738;28;20249;-71
2020/12/27 05:01:54;;;;;;;4.65;1.80;;;31.10;59.00;;;;;;4965756;28;20693;-70
2020/12/27 05:04:26;;;;;;;4.80;1.95;;;31.30;57.80;;;;;;4970050;28;20174;-72
2020/12/27 05:06:55;;;;;;;3.83;1.65;;;31.50;57.70;;;;;;4970278;28;20202;-71
2020/12/27 05:09:31;;;;;;;4.05;1.80;;;31.70;57.30;;;;;;4969805;28;20708;-72
2020/12/27 05:11:58;;;;;;;7.93;1.60;;;32.10;56.00;;;;;;4964558;28;20206;-71
2020/12/27 05:14:27;;;;;;;3.50;1.55;;;31.50;56.40;;;;;;4967284;28;20195;-72
2020/12/27 05:16:57;;;;;;;3.55;1.70;;;31.60;56.40;;;;;;4968602;28;20197;-72
2020/12/27 05:19:25;;;;;;;5.32;1.60;;;32.10;54.70;;;;;;4967794;28;20226;-71
2020/12/27 05:21:54;;;;;;;4.18;1.83;;;32.20;54.60;;;;;;4969700;28;20237;-71
2020/12/27 05:24:22;;;;;;;4.53;1.52;;;31.50;54.80;;;;;;4970921;28;20224;-71
2020/12/27 05:26:52;;;;;;;4.20;1.60;;;31.20;55.80;;;;;;4967860;28;20277;-71
2020/12/27 05:29:33;;;;;;;6.63;1.70;;;31.60;55.20;;;;;;4967355;28;20179;-71
2020/12/27 05:32:01;;;;;;;7.40;1.60;;;31.90;54.20;;;;;;4971269;28;20214;-70
2020/12/27 05:34:30;;;;;;;5.18;1.50;;;32.00;53.50;;;;;;4966878;28;20561;-72
2020/12/27 05:36:59;;;;;;;5.55;1.40;;;31.70;54.30;;;;;;4966761;28;20206;-71
2020/12/27 05:39:28;;;;;;;5.70;1.67;;;32.10;54.40;;;;;;4961478;28;20175;-71
2020/12/27 05:42:09;;;;;;;2.78;1.45;;;32.20;53.70;;;;;;4964066;28;20206;-72
2020/12/27 05:44:37;;;;;;;4.43;1.67;;;32.60;53.40;;;;;;4962130;28;20178;-71
2020/12/27 05:47:05;;;;;;;5.00;1.35;;;32.50;52.90;;;;;;4962201;28;20684;-71
2020/12/27 05:49:32;;;;;;;4.03;1.45;;;32.50;52.90;;;;;;4968662;28;20277;-71
2020/12/27 05:52:00;;;;;;;3.38;1.50;;;32.60;52.90;;;;;;4970497;28;20692;-72
2020/12/27 05:54:34;;;;;;;3.50;1.25;;;32.50;53.70;;;;;;4965696;28;20246;-72
2020/12/27 05:57:04;;;;;;;2.90;1.45;;;32.50;53.60;;;;;;4964225;28;20216;-71
2020/12/27 05:59:33;;;;;;;3.60;1.90;;;32.50;53.60;;;;;;4967751;28;20222;-71
2020/12/27 06:02:02;;;;;;;6.50;1.67;;;32.80;52.90;;;;;;4967629;28;20218;-71
2020/12/27 06:05:05;;;;;;;4.80;1.33;;;32.30;53.40;;;;;;4968439;28;20189;-71
2020/12/27 06:07:41;;;;;;;2.85;1.15;;;32.10;53.40;;;;;;4969520;28;20750;-70
2020/12/27 06:10:12;;;;;;;4.60;1.30;;;32.40;53.50;;;;;;4957672;28;20261;-72
2020/12/27 06:13:06;;;;;;;2.42;1.02;;;32.00;53.40;;;;;;4960535;28;20187;-70
2020/12/27 06:15:36;;;;;;;3.83;1.20;;;31.30;54.60;;;;;;4971220;28;20190;-70
2020/12/27 06:18:17;;;;;;;4.78;1.23;;;31.60;55.20;;;;;;4975983;28;20178;-71
2020/12/27 06:20:45;;;;;;;2.65;1.40;;;32.10;53.80;;;;;;4971429;28;20750;-71
2020/12/27 06:23:13;;;;;;;2.15;1.13;;;31.70;54.50;;;;;;4973650;28;20198;-70
2020/12/27 06:25:41;;;;;;;3.35;1.20;;;31.50;55.40;;;;;;4965286;28;20542;-70
2020/12/27 06:28:08;;;;;;;5.43;1.88;;;32.00;54.50;;;;;;4971729;28;20185;-71
2020/12/27 06:30:39;;;;;;;6.57;1.60;;;31.60;55.00;;;;;;4965815;28;20575;-70
2020/12/27 06:33:21;;;;;;;3.78;1.30;;;31.10;56.30;;;;;;4969221;28;20217;-71
2020/12/27 06:35:48;;;;;;;4.47;1.48;;;30.90;57.50;;;;;;4964142;28;20193;-71
2020/12/27 06:38:24;;;;;;;3.05;1.50;;;30.80;56.90;;;;;;4964269;28;20183;-71
2020/12/27 06:41:04;;;;;;;5.57;1.38;;;31.20;56.40;;;;;;4972060;28;20264;-71
2020/12/27 06:43:45;;;;;;;3.85;1.80;;;31.20;57.20;;;;;;4968696;28;20179;-69
2020/12/27 06:46:27;;;;;;;7.47;1.40;;;30.80;58.00;;;;;;4969349;28;20180;-71
2020/12/27 06:49:15;;;;;;;2.75;1.35;;;30.30;59.90;;;;;;4966957;28;20708;-72
2020/12/27 06:51:44;;;;;;;7.17;1.70;;;29.90;62.20;;;;;;4966159;28;20197;-72
2020/12/27 06:54:15;;;;;;;5.47;1.87;;;29.40;64.00;;;;;;4962662;28;20308;-71
2020/12/27 06:56:46;;;;;;;3.40;1.60;;;29.00;65.40;;;;;;4970071;28;20194;-71
2020/12/27 06:59:14;;;;;;;6.47;1.67;;;28.60;66.80;;;;;;4965005;28;20261;-71
2020/12/27 07:01:42;;;;;;;7.67;1.50;;;28.30;67.90;;;;;;4966411;28;20230;-71
2020/12/27 07:04:14;;;;;;;5.10;1.93;;;27.90;69.00;;;;;;4969943;28;20186;-71
2020/12/27 07:06:47;;;;;;;2.03;1.40;;;27.70;70.00;;;;;;4969700;28;20217;-70
2020/12/27 07:09:26;;;;;;;3.83;1.60;;;27.50;70.10;;;;;;4965302;28;20317;-70
2020/12/27 07:12:06;;;;;;;3.77;1.40;;;27.50;70.50;;;;;;4961673;28;20219;-71
2020/12/27 07:14:43;;;;;;;5.27;1.63;;;27.60;70.30;;;;;;4971650;28;20194;-70
2020/12/27 07:17:11;;;;;;;3.73;1.40;;;27.50;70.40;;;;;;4973359;28;20190;-70
2020/12/27 07:19:39;;;;;;;3.47;1.33;;;27.40;70.40;;;;;;4972244;28;20269;-72
2020/12/27 07:22:10;;;;;;;5.03;2.00;;;27.10;71.60;;;;;;4964054;28;20648;-73
2020/12/27 07:24:39;;;;;;;4.23;1.20;;;27.00;71.80;;;;;;4961430;28;20191;-70
2020/12/27 07:27:18;;;;;;;4.97;1.57;;;27.00;72.00;;;;;;4968721;28;20194;-71
2020/12/27 07:29:57;;;;;;;4.70;1.50;;;26.80;72.30;;;;;;4962410;28;20711;-71
2020/12/27 07:32:26;;;;;;;3.07;1.20;;;26.70;73.20;;;;;;4962285;28;20194;-71
2020/12/27 07:34:56;;;;;;;3.70;1.70;;;26.70;73.10;;;;;;4963469;28;20184;-71
2020/12/27 07:37:27;;;;;;;2.57;1.37;;;26.70;73.30;;;;;;4973267;28;20209;-71
2020/12/27 07:39:58;;;;;;;7.53;1.70;;;26.50;74.00;;;;;;4972024;28;20198;-71
2020/12/27 07:42:28;;;;;;;1.70;1.30;;;26.30;74.60;;;;;;4967867;28;20195;-71
2020/12/27 07:44:58;;;;;;;4.17;1.50;;;26.20;75.30;;;;;;4977339;28;20195;-71
2020/12/27 07:47:26;;;;;;;4.27;1.40;;;26.20;75.50;;;;;;4967402;28;20649;-70
2020/12/27 07:50:10;;;;;;;2.87;1.40;;;26.10;75.30;;;;;;4967446;28;20673;-71
2020/12/27 07:52:45;;;;;;;3.53;1.40;;;26.00;75.80;;;;;;4970284;28;20649;-70
2020/12/27 07:55:26;;;;;;;3.17;1.40;;;26.00;76.00;;;;;;4960630;28;20182;-71
2020/12/27 07:57:54;;;;;;;4.40;1.47;;;25.90;76.30;;;;;;4960975;28;20535;-71
2020/12/27 08:00:27;;;;;;;2.50;1.30;;;25.80;76.90;;;;;;4956639;28;20693;-71
2020/12/27 08:02:55;;;;;;;2.67;1.37;;;25.80;76.90;;;;;;4955314;28;20191;-70
2020/12/27 08:05:22;;;;;;;5.53;1.57;;;25.80;77.20;;;;;;4972929;28;20574;-71
2020/12/27 08:07:53;;;;;;;3.30;1.40;;;25.80;77.30;;;;;;4970332;28;20652;-71
2020/12/27 08:10:26;;;;;;;3.10;1.40;;;25.80;78.00;;;;;;4968143;28;20617;-72
2020/12/27 08:12:58;;;;;;;3.87;1.60;;;25.70;77.40;;;;;;4956305;28;20182;-72
2020/12/27 08:15:30;;;;;;;5.73;1.70;;;25.70;77.40;;;;;;4967703;28;20656;-71
2020/12/27 08:18:06;;;;;;;2.67;1.50;;;25.70;77.10;;;;;;4955849;29;20688;-73
2020/12/27 08:20:44;;;;;;;2.73;1.37;;;25.70;77.10;;;;;;4960706;28;20210;-71
2020/12/27 08:23:12;;;;;;;3.13;1.43;;;25.60;77.20;;;;;;4962185;28;20186;-71
2020/12/27 08:25:40;;;;;;;3.17;1.40;;;25.50;77.00;;;;;;4964482;28;20184;-71
2020/12/27 08:28:14;;;;;;;4.57;1.53;;;25.50;77.10;;;;;;4968932;28;20545;-71
2020/12/27 08:30:44;;;;;;;6.23;1.70;;;25.50;77.30;;;;;;4961419;28;20190;-70
2020/12/27 08:33:19;;;;;;;4.13;1.67;;;25.40;77.50;;;;;;4969674;28;20203;-71
2020/12/27 08:35:53;;;;;;;3.70;1.83;;;25.40;77.50;;;;;;4963111;28;20187;-71
2020/12/27 08:38:37;;;;;;;3.33;1.70;;;25.40;77.60;;;;;;4962583;28;20241;-72
2020/12/27 08:41:20;;;;;;;4.30;1.20;;;25.40;78.00;;;;;;4966515;28;20229;-72
2020/12/27 08:44:14;;;;;;;3.83;1.33;;;25.40;78.00;;;;;;4968041;28;20182;-70
2020/12/27 08:46:44;;;;;;;4.40;1.43;;;25.40;78.10;;;;;;4966568;28;20273;-71
2020/12/27 08:49:24;;;;;;;6.10;1.70;;;25.30;78.10;;;;;;4968712;28;20542;-71
2020/12/27 08:52:07;;;;;;;10.10;1.70;;;25.30;78.50;;;;;;4961575;28;20191;-70
2020/12/27 08:54:35;;;;;;;1.93;1.10;;;25.30;78.70;;;;;;4961966;28;20222;-71
2020/12/27 08:57:07;;;;;;;6.10;1.40;;;25.30;78.60;;;;;;4969271;28;20190;-71
2020/12/27 08:59:34;;;;;;;6.70;1.53;;;25.20;78.90;;;;;;4968043;28;20346;-71
2020/12/27 09:02:11;;;;;;;3.90;1.30;;;25.20;79.10;;;;;;4961455;28;20225;-69
2020/12/27 09:04:38;;;;;;;4.47;1.20;;;25.20;79.40;;;;;;4956901;28;20175;-70
2020/12/27 09:07:06;;;;;;;4.70;1.40;;;25.20;80.10;;;;;;4973607;28;20651;-69
2020/12/27 09:09:33;;;;;;;4.07;1.10;;;25.10;80.70;;;;;;4970363;28;20198;-71
2020/12/27 09:12:08;;;;;;;8.47;1.60;;;25.10;81.30;;;;;;4960372;28;20179;-69
2020/12/27 09:14:37;;;;;;;4.40;1.33;;;25.10;81.60;;;;;;4970125;28;20228;-71
2020/12/27 09:17:14;;;;;;;4.50;1.37;;;25.10;81.80;;;;;;4964509;28;20199;-71
2020/12/27 09:19:46;;;;;;;5.03;0.93;;;25.10;82.00;;;;;;4967917;28;20190;-71
2020/12/27 09:22:14;;;;;;;4.17;1.30;;;25.10;81.90;;;;;;4969125;28;20597;-71
2020/12/27 09:24:41;;;;;;;6.90;1.40;;;25.00;81.60;;;;;;4973346;28;20175;-70
2020/12/27 09:27:10;;;;;;;6.23;1.73;;;25.10;81.20;;;;;;4971822;28;20182;-71
2020/12/27 09:29:38;;;;;;;6.73;1.70;;;25.10;80.80;;;;;;4961072;28;20283;-70
2020/12/27 09:32:11;;;;;;;6.43;1.67;;;25.10;80.40;;;;;;4973767;28;20485;-71
2020/12/27 09:34:39;;;;;;;6.90;1.40;;;25.00;80.20;;;;;;4968409;28;20222;-71
2020/12/27 09:37:14;;;;;;;4.53;1.37;;;25.10;79.80;;;;;;4954072;28;20654;-71
2020/12/27 09:39:42;;;;;;;3.47;1.20;;;25.00;79.50;;;;;;4959880;28;20170;-70
2020/12/27 09:42:33;;;;;;;8.03;1.23;;;25.00;79.10;;;;;;4967226;28;20229;-70
2020/12/27 09:45:20;;;;;;;4.83;1.43;;;25.10;78.60;;;;;;4958713;28;20533;-72
2020/12/27 09:47:59;;;;;;;6.00;1.60;;;25.10;78.40;;;;;;4968807;28;20199;-71
2020/12/27 09:50:34;;;;;;;3.37;1.33;;;25.10;78.10;;;;;;4966703;28;20187;-71
2020/12/27 09:53:04;;;;;;;4.80;1.63;;;25.10;78.20;;;;;;4961831;28;20297;-71
2020/12/27 09:55:35;;;;;;;9.90;3.00;;;25.10;78.30;;;;;;4964953;28;20281;-70
2020/12/27 09:58:02;;;;;;;5.03;1.50;;;25.10;78.50;;;;;;4974690;28;20612;-71
2020/12/27 10:00:29;;;;;;;7.57;1.57;;;25.10;78.40;;;;;;4966272;28;20214;-71
2020/12/27 10:02:57;;;;;;;5.07;1.33;;;25.10;78.40;;;;;;4971751;28;20175;-71
2020/12/27 10:05:24;;;;;;;6.37;1.23;;;25.10;78.50;;;;;;4970908;28;20663;-71
2020/12/27 10:07:51;;;;;;;6.57;1.50;;;25.10;78.50;;;;;;4972642;28;20183;-70
2020/12/27 10:10:19;;;;;;;6.50;1.30;;;25.10;78.90;;;;;;4975695;28;20261;-70
2020/12/27 10:12:46;;;;;;;3.93;1.30;;;25.10;78.90;;;;;;4971027;28;20536;-70
2020/12/27 10:15:14;;;;;;;6.10;1.70;;;25.10;78.90;;;;;;4970828;28;20178;-71
2020/12/27 10:17:41;;;;;;;4.07;1.40;;;25.20;78.60;;;;;;4968514;28;20195;-71
2020/12/27 10:20:10;;;;;;;5.70;2.07;;;25.20;78.70;;;;;;4969419;28;20300;-71
2020/12/27 10:22:38;;;;;;;6.93;2.50;;;25.20;78.80;;;;;;4964611;28;20337;-71
2020/12/27 10:25:07;;;;;;;7.87;2.20;;;25.20;78.70;;;;;;4972583;28;20704;-72
2020/12/27 10:27:35;;;;;;;7.07;1.53;;;25.20;78.70;;;;;;4970144;28;20179;-72
2020/12/27 10:30:04;;;;;;;5.43;1.40;;;25.20;79.00;;;;;;4967544;28;20311;-72
2020/12/27 10:32:31;;;;;;;7.80;1.73;;;25.20;79.20;;;;;;4968189;28;20665;-72
2020/12/27 10:34:59;;;;;;;7.20;1.57;;;25.20;79.60;;;;;;4974821;28;20272;-71
2020/12/27 10:37:26;;;;;;;10.80;1.60;;;25.20;79.80;;;;;;4971562;28;20537;-70
2020/12/27 10:39:54;;;;;;;8.40;2.07;;;25.20;79.90;;;;;;4974151;28;20524;-71
2020/12/27 10:42:22;;;;;;;7.77;1.70;;;25.20;80.40;;;;;;4968962;28;20553;-72
2020/12/27 10:44:49;;;;;;;6.00;1.80;;;25.20;80.60;;;;;;4971884;28;20189;-71
2020/12/27 10:47:17;;;;;;;7.37;2.07;;;25.20;80.90;;;;;;4968115;28;20187;-70
2020/12/27 10:49:44;;;;;;;7.93;1.93;;;25.10;80.80;;;;;;4976254;28;20191;-71
2020/12/27 10:52:11;;;;;;;9.43;3.30;;;25.10;81.10;;;;;;4969477;28;20183;-70
2020/12/27 10:54:39;;;;;;;5.90;2.37;;;25.10;81.20;;;;;;4972672;28;20640;-71
2020/12/27 10:57:08;;;;;;;9.70;2.17;;;25.10;81.40;;;;;;4965795;28;20542;-71
2020/12/27 10:59:35;;;;;;;7.80;2.20;;;25.10;81.50;;;;;;4968447;28;20546;-72
2020/12/27 11:02:03;;;;;;;9.40;2.17;;;25.10;81.60;;;;;;4971344;28;20297;-72
2020/12/27 11:04:30;;;;;;;5.93;2.20;;;25.10;81.60;;;;;;4969402;28;20194;-72
2020/12/27 11:06:57;;;;;;;10.07;2.40;;;25.10;81.90;;;;;;4970147;28;20191;-71
2020/12/27 11:09:25;;;;;;;7.33;2.00;;;25.10;81.90;;;;;;4973269;28;20194;-72
2020/12/27 11:11:54;;;;;;;10.37;2.40;;;25.10;81.90;;;;;;4970640;28;20193;-72
2020/12/27 11:14:22;;;;;;;12.83;1.87;;;25.10;82.00;;;;;;4967858;28;20194;-72
2020/12/27 11:16:50;;;;;;;8.90;2.13;;;25.10;82.20;;;;;;4966024;28;20229;-72
2020/12/27 11:19:17;;;;;;;7.50;1.60;;;25.00;82.40;;;;;;4973164;28;20647;-72
2020/12/27 11:21:50;;;;;;;8.37;2.13;;;25.00;82.40;;;;;;4971700;28;20338;-71
2020/12/27 11:24:18;;;;;;;9.17;1.77;;;25.00;82.60;;;;;;4971934;28;20549;-72
2020/12/27 11:26:45;;;;;;;8.40;1.70;;;24.90;82.70;;;;;;4967435;28;20195;-71
2020/12/27 11:29:12;;;;;;;7.37;2.17;;;25.00;82.90;;;;;;4969950;28;20249;-72
2020/12/27 11:31:40;;;;;;;7.68;1.90;;;25.00;83.00;;;;;;4966718;28;20432;-72
2020/12/27 11:34:07;;;;;;;9.97;2.23;;;25.00;83.00;;;;;;4966596;28;20182;-71
2020/12/27 11:36:35;;;;;;;9.33;2.13;;;24.90;83.20;;;;;;4972182;28;20206;-72
2020/12/27 11:39:02;;;;;;;5.43;2.23;;;25.00;83.10;;;;;;4967469;28;20179;-71
2020/12/27 11:41:29;;;;;;;10.40;4.70;;;25.00;82.80;;;;;;4970537;28;20222;-71
2020/12/27 11:43:57;;;;;;;9.63;3.83;;;25.00;82.90;;;;;;4970241;28;20190;-71
2020/12/27 11:46:27;;;;;;;8.30;2.40;;;25.10;83.00;;;;;;4967768;28;20194;-71
2020/12/27 11:48:55;;;;;;;7.97;1.83;;;25.10;83.20;;;;;;4967013;28;20198;-71
2020/12/27 11:51:22;;;;;;;5.63;1.90;;;25.00;83.20;;;;;;4967687;28;20645;-71
2020/12/27 11:53:51;;;;;;;4.80;1.60;;;25.00;83.30;;;;;;4966482;28;20648;-71
2020/12/27 11:56:22;;;;;;;5.47;1.70;;;25.00;83.40;;;;;;4972031;28;20194;-70
2020/12/27 11:58:49;;;;;;;6.37;1.90;;;24.90;83.60;;;;;;4963802;28;20223;-71
2020/12/27 12:01:17;;;;;;;8.67;2.00;;;24.90;83.90;;;;;;4970151;28;20244;-71
2020/12/27 12:03:47;;;;;;;8.97;1.90;;;24.90;84.00;;;;;;4966872;28;20187;-71
2020/12/27 12:06:23;;;;;;;5.00;1.73;;;24.90;84.00;;;;;;4964595;28;20183;-71
2020/12/27 12:08:51;;;;;;;7.73;2.10;;;24.90;84.00;;;;;;4968556;28;20513;-71
2020/12/27 12:11:18;;;;;;;7.27;2.20;;;24.90;84.10;;;;;;4972563;28;20189;-71
2020/12/27 12:13:46;;;;;;;7.87;2.00;;;24.90;84.10;;;;;;4968502;28;20269;-71
2020/12/27 12:16:23;;;;;;;10.43;2.50;;;24.90;84.20;;;;;;4959166;28;20582;-71
2020/12/27 12:18:50;;;;;;;14.10;5.00;;;24.80;84.40;;;;;;4967002;28;20600;-71
2020/12/27 12:21:18;;;;;;;7.03;3.27;;;24.80;84.80;;;;;;4971919;28;20268;-71
2020/12/27 12:23:45;;;;;;;9.13;2.40;;;24.80;84.50;;;;;;4968822;28;20179;-71
2020/12/27 12:26:20;;;;;;;7.57;1.93;;;24.80;84.20;;;;;;4972524;28;20178;-71
2020/12/27 12:28:47;;;;;;;8.67;1.93;;;24.80;84.00;;;;;;4974941;28;20187;-71
2020/12/27 12:31:18;;;;;;;7.23;1.87;;;24.90;83.40;;;;;;4973292;28;20641;-71
2020/12/27 12:33:47;;;;;;;6.90;2.13;;;25.00;83.30;;;;;;4973660;28;20257;-71
2020/12/27 12:36:19;;;;;;;5.27;1.80;;;25.00;83.30;;;;;;4974881;28;20269;-71
2020/12/27 12:38:47;;;;;;;4.60;2.27;;;24.90;83.50;;;;;;4974560;28;20262;-71
2020/12/27 12:41:15;;;;;;;6.20;1.67;;;24.90;83.30;;;;;;4973976;28;20214;-71
2020/12/27 12:43:44;;;;;;;4.83;1.53;;;25.00;83.00;;;;;;4974799;28;20182;-71
2020/12/27 12:46:14;;;;;;;8.33;1.80;;;25.00;82.80;;;;;;4974850;28;20187;-71
2020/12/27 12:48:42;;;;;;;5.70;1.90;;;24.90;83.20;;;;;;4962134;28;20194;-71
2020/12/27 12:51:09;;;;;;;7.80;2.00;;;24.90;84.20;;;;;;4971602;28;20190;-71
2020/12/27 12:53:37;;;;;;;3.90;1.50;;;24.80;84.50;;;;;;4972951;28;20286;-71
2020/12/27 12:56:05;;;;;;;10.07;2.00;;;24.70;84.70;;;;;;4974622;28;20208;-71
2020/12/27 12:58:32;;;;;;;9.90;1.73;;;24.70;84.10;;;;;;4972993;28;20629;-71